Mazeppa, MN (55956)

2:11 AM CDT on July 29, 2016 (GMT -0500)
APRSWXNET | | Change Station

Elev 941 ft 44.27 °N, 92.55 °W | Updated 28 minutes ago

Overcast
Overcast
65 °F
Feels Like 65 °F
N
4
Wind Variable Wind from East
Gusts 0.0 mph

Today
High -- | Low -- °F
--% Chance of Precip.
Yesterday
High -- | Low -- °F
Precip. -- in
Pressure 30.04 in
Visibility 10.0 miles
Clouds Overcast 2400 ft
Dew Point 60 °F
Humidity 85%
Rainfall in
Snow Depth Not available.
5:54 AM 8:37 PM
Waning Crescent, 24% visible
METAR K9MN 290654Z AUTO 02004KT 10SM OVC024 18/16 A3004 RMK AO1 T01760155
Pressure 30.04 in
Visibility 10.0 miles
Clouds Overcast 2400 ft
Dew Point 60 °F
Humidity 85%
Rainfall in
Snow Depth Not available.
5:54 AM 8:37 PM
Waning Crescent, 24% visible
METAR K9MN 290654Z AUTO 02004KT 10SM OVC024 18/16 A3004 RMK AO1 T01760155

10-Day Weather Forecast

Almanac

Astronomy

Jul. 29, 2016 Rise Set
Actual Time
Civil Twilight
Nautical Twilight
Astronomical Twilight
Moon
Length of Visible Light
Length of Day
Tomorrow will be .
, % of the Moon is Illuminated

Today's Extremes

State Highs State Lows

Community

WunderPhotos

Upload Photos

1,928,302 photos uploaded!

WunderBlog® & News

Nearby

Air Quality

  Air Quality AQ Index Pollutant
Not available.

Snow Depth

Station Depth Elevation

Earthquake Activity

City Distance Mag. Time & Date
Minimum magnitude displayed is 2.5.

Coastal Water Temperatures

Place Temperature

Stations

Nearby Weather Stations

Station Location Temp. Windchill Dew Point Humidity Wind Precip. Elev Updated Type
                   

Watches & Warnings

There are currently no watches in effect.